Warrens, WI (54666)

6:51 PM CDT on July 29, 2014 (GMT -0500)
MesoWest WARENS WI US UPR (MUP115) Elev 977 ft | 44.09 °N, 90.45 °W | Change Station

Current weather conditions updated 1 hour ago

Overcast
Overcast
68 °F
Feels Like 68 °F
N
Wind Variable Wind from North
Gusts 0.0 mph

Tomorrow is forecast to be nearly the same temperature as today.

Today
High -- | Low -- °F
--% Chance of Precip.
Yesterday
High -- | Low -- °F
Precip. -- in
5:46 AM 8:29 PM
Waxing Crescent, 8% visible
Pressure 30.09 in
Visibility 4.0 miles
Clouds Scattered Clouds 2300 ft
Mostly Cloudy 6000 ft
Overcast 8000 ft
Dew Point Not available.
Humidity Not available.
Rainfall -999.00 in
Snow Depth Not available.
UV 0 out of 12
Pollen 7.10 out of 12
Air Quality Not available.
Flu Activity Not available.
METAR KCMY 292335Z AUTO 02008G22KT 4SM +RA SCT023 BKN060 OVC080 18/14 A3009 RMK AO2 LTG DSNT ALQS P0006 T01770143

More Conditions Fewer Conditions

Pressure 30.09 in
Visibility 4.0 miles
Clouds Scattered Clouds 2300 ft
Mostly Cloudy 6000 ft
Overcast 8000 ft
Dew Point Not available.
Humidity Not available.
Rainfall -999.00 in
Snow Depth Not available.
UV 0 out of 12
Pollen 7.10 out of 12
Air Quality Not available.
Flu Activity Not available.
METAR KCMY 292335Z AUTO 02008G22KT 4SM +RA SCT023 BKN060 OVC080 18/14 A3009 RMK AO2 LTG DSNT ALQS P0006 T01770143

More Conditions Fewer Conditions

10-Day Weather Forecast

Almanac

Astronomy

Jul. 29, 2014 Rise Set
Actual Time 5:46 AM CDT 8:29 PM CDT
Civil Twilight 5:13 AM CDT 9:03 PM CDT
Nautical Twilight 4:30 AM CDT 9:44 PM CDT
Astronomical Twilight 3:42 AM CDT 10:33 PM CDT
Moon 8:30 AM CDT 9:33 PM CDT
Length of Visible Light 15h 49m
Length of Day
14h 43m
Tomorrow will be 2m 14s shorter.
Waxing Crescent, 8% of the Moon is Illuminated
Today
Waxing Crescent
Aug 3
First Quarter
Aug 10
Full
Aug 17
Last Quarter
Aug 25
New

Today's Extremes

State Highs State Lows

Community

WunderPhotos

Upload Photos

1,738,916 photos uploaded!

Nearby

Snow Depth

Station Depth Elevation
No new snow has been reported.

Earthquake Activity

City Distance Mag. Time & Date
No recent earthquake activity has been reported nearby.
Minimum magnitude displayed is 2.5.

Coastal Water Temperatures

Place Temperature
No Stations Reporting

Nearby Weather Stations

Station Location Temp. Dew Point Humidity Wind Precip. Elev Updated Type
MesoWest WARENS , Warrens, WI 68 °F - - North  at  - 0.00 in / hr 977 ft 5:40 PM CDT MADIS
Water Mill, Tomah, WI 61.0 °F 61 °F 100% West  at  0.0 mph 0.04 in / hr 950 ft 6:51 PM CDT Rapid Fire
RAWS NECEDAH WI, Necedah, WI 68 °F 56 °F 66% West  at  9 mph 0.03 in / hr 950 ft 5:48 PM CDT MADIS
Kendall, Wi., Kendall, WI 64.0 °F 55 °F 73% NNE  at  8.1 mph 0.00 in / hr 1021 ft 6:51 PM CDT Rapid Fire
New Lisbon, WI 60.1 °F 60 °F 99% NW  at  3.0 mph 0.00 in / hr 891 ft 6:51 PM CDT Rapid Fire

Show More Stations Show Fewer Stations